createdAt,value
2022-12-11T00:01:51.144Z,17.40
2022-12-11T00:04:24.367Z,17.40
2022-12-11T00:06:56.728Z,17.40
2022-12-11T00:09:30.526Z,17.40
2022-12-11T00:12:03.165Z,17.40
2022-12-11T00:14:36.101Z,17.40
2022-12-11T00:17:10.385Z,17.40
2022-12-11T00:19:45.729Z,17.40
2022-12-11T00:22:18.375Z,17.40
2022-12-11T00:24:51.794Z,17.30
2022-12-11T00:27:24.567Z,17.40
2022-12-11T00:29:57.352Z,17.40
2022-12-11T00:32:37.356Z,17.40
2022-12-11T00:35:11.433Z,17.30
2022-12-11T00:37:44.288Z,17.30
2022-12-11T00:40:16.963Z,17.30
2022-12-11T00:42:49.629Z,17.40
2022-12-11T00:45:22.305Z,17.30
2022-12-11T00:47:55.020Z,17.30
2022-12-11T00:50:27.895Z,17.30
2022-12-11T00:53:00.611Z,17.30
2022-12-11T00:55:37.129Z,17.30
2022-12-11T00:58:10.401Z,17.40
2022-12-11T01:00:43.808Z,17.40
2022-12-11T01:03:17.441Z,17.40
2022-12-11T01:05:55.209Z,17.30
2022-12-11T01:08:27.815Z,17.40
2022-12-11T01:11:08.670Z,17.30
2022-12-11T01:13:42.669Z,17.30
2022-12-11T01:16:16.318Z,17.30
2022-12-11T01:18:48.937Z,17.30
2022-12-11T01:21:21.546Z,17.30
2022-12-11T01:23:54.213Z,17.30
2022-12-11T01:26:26.829Z,17.30
2022-12-11T01:28:59.601Z,17.30
2022-12-11T01:31:32.289Z,17.30
2022-12-11T01:34:04.912Z,17.30
2022-12-11T01:36:37.608Z,17.30
2022-12-11T01:39:10.190Z,17.30
2022-12-11T01:41:42.811Z,17.30
2022-12-11T01:44:18.109Z,17.30
2022-12-11T01:46:50.979Z,17.20
2022-12-11T01:49:26.558Z,17.20
2022-12-11T01:52:05.677Z,17.20
2022-12-11T01:54:38.694Z,17.20
2022-12-11T01:57:13.821Z,17.20
2022-12-11T01:59:47.538Z,17.20
2022-12-11T02:02:30.721Z,17.10
2022-12-11T02:05:04.784Z,17.10
2022-12-11T02:07:46.817Z,17.10
2022-12-11T02:10:19.932Z,17.10
2022-12-11T02:13:13.331Z,17.10
2022-12-11T02:15:57.598Z,17.00
2022-12-11T02:18:49.676Z,17.10
2022-12-11T02:21:34.680Z,17.00
2022-12-11T02:24:26.768Z,17.00
2022-12-11T02:27:12.224Z,17.00
2022-12-11T02:30:02.874Z,17.00
2022-12-11T02:32:53.546Z,17.00
2022-12-11T02:35:34.893Z,16.90
2022-12-11T02:38:22.338Z,17.00
2022-12-11T02:40:57.885Z,16.90
2022-12-11T02:43:32.971Z,16.90
2022-12-11T02:46:07.980Z,16.90
2022-12-11T02:48:42.485Z,16.90
2022-12-11T02:51:18.972Z,16.90
2022-12-11T02:53:54.754Z,16.90
2022-12-11T02:56:36.897Z,16.90
2022-12-11T02:59:19.463Z,16.90
2022-12-11T03:01:52.067Z,16.90
2022-12-11T03:04:25.251Z,16.90
2022-12-11T03:07:03.299Z,16.90
2022-12-11T03:09:35.802Z,16.80
2022-12-11T03:12:14.860Z,16.80
2022-12-11T03:14:49.212Z,16.80
2022-12-11T03:17:48.232Z,16.80
2022-12-11T03:20:40.826Z,16.80
2022-12-11T03:23:40.513Z,16.80
2022-12-11T03:26:15.391Z,16.80
2022-12-11T03:29:04.924Z,16.70
2022-12-11T03:31:51.339Z,16.70
2022-12-11T03:34:31.644Z,16.70
2022-12-11T03:37:06.834Z,16.60
2022-12-11T03:39:43.932Z,16.60
2022-12-11T03:42:18.232Z,16.60
2022-12-11T03:44:53.294Z,16.60
2022-12-11T03:47:29.107Z,16.60
2022-12-11T03:50:05.081Z,16.60
2022-12-11T03:52:45.553Z,16.50
2022-12-11T03:55:21.567Z,16.50
2022-12-11T03:57:54.189Z,16.50
2022-12-11T04:00:26.902Z,16.50
2022-12-11T04:03:16.219Z,16.50
2022-12-11T04:05:53.290Z,16.40
2022-12-11T04:08:26.268Z,16.40
2022-12-11T04:11:17.620Z,16.40
2022-12-11T04:14:10.180Z,16.40
2022-12-11T04:16:42.846Z,16.40
2022-12-11T04:19:33.717Z,16.40
2022-12-11T04:22:25.053Z,16.40
2022-12-11T04:24:57.765Z,16.30
2022-12-11T04:27:49.211Z,16.30
2022-12-11T04:30:26.910Z,16.30
2022-12-11T04:33:09.064Z,16.30
2022-12-11T04:35:49.612Z,16.20
2022-12-11T04:38:24.216Z,16.20
2022-12-11T04:40:59.832Z,16.20
2022-12-11T04:43:33.344Z,16.20
2022-12-11T04:46:09.109Z,16.20
2022-12-11T04:48:42.134Z,16.20
2022-12-11T04:51:15.931Z,16.20
2022-12-11T04:53:48.519Z,16.20
2022-12-11T04:56:21.726Z,16.20
2022-12-11T04:58:54.244Z,16.20
2022-12-11T05:01:26.845Z,16.10
2022-12-11T05:04:02.558Z,16.10
2022-12-11T05:06:35.163Z,16.10
2022-12-11T05:09:11.061Z,16.10
2022-12-11T05:11:43.883Z,16.10
2022-12-11T05:14:16.479Z,16.00
2022-12-11T05:16:49.325Z,16.00
2022-12-11T05:19:21.926Z,16.00
2022-12-11T05:21:54.754Z,16.00
2022-12-11T05:24:27.323Z,16.00
2022-12-11T05:26:59.996Z,16.00
2022-12-11T05:29:32.658Z,16.00
2022-12-11T05:32:05.595Z,16.00
2022-12-11T05:34:38.281Z,15.90
2022-12-11T05:37:10.949Z,15.90
2022-12-11T05:39:43.555Z,15.90
2022-12-11T05:42:16.209Z,15.90
2022-12-11T05:44:50.626Z,15.90
2022-12-11T05:47:23.351Z,15.90
2022-12-11T05:49:55.919Z,15.90
2022-12-11T05:52:28.509Z,15.80
2022-12-11T05:55:01.213Z,15.80
2022-12-11T05:57:33.856Z,15.80
2022-12-11T06:00:07.107Z,15.80
2022-12-11T06:02:39.589Z,15.80
2022-12-11T06:05:12.362Z,15.80
2022-12-11T06:07:45.211Z,15.80
2022-12-11T06:10:17.804Z,15.70
2022-12-11T06:12:50.321Z,15.70
2022-12-11T06:15:22.838Z,15.70
2022-12-11T06:17:55.524Z,15.70
2022-12-11T06:20:31.019Z,15.70
2022-12-11T06:23:03.917Z,15.80
2022-12-11T06:25:39.817Z,15.80
2022-12-11T06:28:12.500Z,15.80
2022-12-11T06:30:45.396Z,15.80
2022-12-11T06:33:18.064Z,15.80
2022-12-11T06:35:50.802Z,15.80
2022-12-11T06:38:23.666Z,15.90
2022-12-11T06:40:57.800Z,15.90
2022-12-11T06:43:30.361Z,15.90
2022-12-11T06:46:07.117Z,15.90
2022-12-11T06:48:40.476Z,16.00
2022-12-11T06:51:13.973Z,16.00
2022-12-11T06:53:51.468Z,16.00
2022-12-11T06:56:25.250Z,16.00
2022-12-11T06:59:00.574Z,16.00
2022-12-11T07:01:35.636Z,16.10
2022-12-11T07:04:10.233Z,16.20
2022-12-11T07:06:43.018Z,16.20
2022-12-11T07:09:15.771Z,16.20
2022-12-11T07:11:50.616Z,16.20
2022-12-11T07:14:26.319Z,16.20
2022-12-11T07:16:59.394Z,16.30
2022-12-11T07:19:32.051Z,16.20
2022-12-11T07:22:04.767Z,16.30
2022-12-11T07:24:37.497Z,16.30
2022-12-11T07:27:10.119Z,16.30
2022-12-11T07:29:42.764Z,16.30
2022-12-11T07:32:15.557Z,16.30
2022-12-11T07:34:51.888Z,16.40
2022-12-11T07:37:25.390Z,16.30
2022-12-11T07:39:57.951Z,16.40
2022-12-11T07:42:30.569Z,16.40
2022-12-11T07:45:03.237Z,16.40
2022-12-11T07:47:35.873Z,16.50
2022-12-11T07:50:08.738Z,16.50
2022-12-11T07:52:41.253Z,16.50
2022-12-11T07:55:14.093Z,16.50
2022-12-11T07:57:46.732Z,16.60
2022-12-11T08:00:19.642Z,16.60
2022-12-11T08:02:52.365Z,16.60
2022-12-11T08:05:25.006Z,16.70
2022-12-11T08:07:57.803Z,16.70
2022-12-11T08:10:31.936Z,16.80
2022-12-11T08:13:04.489Z,16.80
2022-12-11T08:15:37.708Z,16.90
2022-12-11T08:18:10.160Z,16.90
2022-12-11T08:20:42.798Z,17.00
2022-12-11T08:23:17.135Z,17.00
2022-12-11T08:25:49.724Z,17.10
2022-12-11T08:28:22.725Z,17.10
2022-12-11T08:30:55.412Z,17.20
2022-12-11T08:33:28.367Z,17.20
2022-12-11T08:36:10.386Z,17.30
2022-12-11T08:38:43.542Z,17.30
2022-12-11T08:41:25.384Z,17.30
2022-12-11T08:44:00.535Z,17.40
2022-12-11T08:46:33.934Z,17.40
2022-12-11T08:49:06.515Z,17.50
2022-12-11T08:51:39.301Z,17.40
2022-12-11T08:54:12.176Z,17.50
2022-12-11T08:56:44.845Z,17.50
2022-12-11T08:59:18.647Z,17.60
2022-12-11T09:01:51.539Z,17.70
2022-12-11T09:04:24.386Z,17.80
2022-12-11T09:06:57.162Z,17.90
2022-12-11T09:09:29.692Z,18.00
2022-12-11T09:12:02.425Z,18.00
2022-12-11T09:14:35.769Z,18.10
2022-12-11T09:17:09.163Z,18.10
2022-12-11T09:19:41.727Z,18.20
2022-12-11T09:22:14.371Z,18.20
2022-12-11T09:24:47.308Z,18.30
2022-12-11T09:27:21.573Z,18.30
2022-12-11T09:29:54.130Z,18.40
2022-12-11T09:32:26.739Z,18.40
2022-12-11T09:34:59.291Z,18.50
2022-12-11T09:37:33.330Z,18.50
2022-12-11T09:40:07.951Z,18.60
2022-12-11T09:42:50.069Z,18.70
2022-12-11T09:45:22.875Z,18.80
2022-12-11T09:47:56.868Z,18.80
2022-12-11T09:50:34.474Z,18.90
2022-12-11T09:53:21.037Z,18.90
2022-12-11T09:55:59.490Z,19.00
2022-12-11T09:58:49.354Z,19.10
2022-12-11T10:01:47.053Z,19.20
2022-12-11T10:04:33.888Z,19.30
2022-12-11T10:07:15.814Z,19.40
2022-12-11T10:09:58.870Z,19.40
2022-12-11T10:12:41.536Z,19.60
2022-12-11T10:15:23.164Z,19.60
2022-12-11T10:18:04.707Z,19.70
2022-12-11T10:20:40.636Z,19.70
2022-12-11T10:23:35.763Z,19.80
2022-12-11T10:26:18.655Z,19.80
2022-12-11T10:28:51.713Z,19.80
2022-12-11T10:31:46.060Z,19.90
2022-12-11T10:34:30.302Z,20.00
2022-12-11T10:37:03.841Z,20.00
2022-12-11T10:39:36.887Z,20.00
2022-12-11T10:42:17.960Z,20.10
2022-12-11T10:45:02.206Z,20.10
2022-12-11T10:47:34.852Z,20.10
2022-12-11T10:50:07.552Z,20.10
2022-12-11T10:52:45.717Z,20.20
2022-12-11T10:55:25.410Z,20.10
2022-12-11T10:58:04.374Z,20.10
2022-12-11T11:00:42.239Z,20.10
2022-12-11T11:03:26.629Z,20.00
2022-12-11T11:06:05.260Z,20.00
2022-12-11T11:08:59.097Z,19.90
2022-12-11T11:11:38.298Z,19.80
2022-12-11T11:14:18.454Z,19.80
2022-12-11T11:16:53.214Z,19.80
2022-12-11T11:19:32.382Z,19.70
2022-12-11T11:22:14.529Z,19.70
2022-12-11T11:24:55.599Z,19.70
2022-12-11T11:27:34.750Z,19.70
2022-12-11T11:30:18.411Z,19.70
2022-12-11T11:33:25.802Z,19.70
2022-12-11T11:36:02.783Z,19.70
2022-12-11T11:38:43.645Z,19.70
2022-12-11T11:41:29.118Z,19.70
2022-12-11T11:44:05.813Z,19.70
2022-12-11T11:46:45.152Z,19.70
2022-12-11T11:49:45.316Z,19.70
2022-12-11T11:52:36.748Z,19.70
2022-12-11T11:55:21.716Z,19.70
2022-12-11T11:58:03.136Z,19.70
2022-12-11T12:00:35.845Z,19.80
2022-12-11T12:03:14.379Z,19.70
2022-12-11T12:05:53.004Z,19.80
2022-12-11T12:08:46.793Z,19.80
2022-12-11T12:11:41.033Z,19.80
2022-12-11T12:14:50.735Z,19.80
2022-12-11T12:17:17.201Z,19.80
2022-12-11T12:20:02.296Z,19.80
2022-12-11T12:22:34.839Z,19.80
2022-12-11T12:25:16.367Z,19.90
2022-12-11T12:28:07.130Z,19.80
2022-12-11T12:30:51.247Z,19.90
2022-12-11T12:33:41.435Z,19.90
2022-12-11T12:36:49.740Z,19.80
2022-12-11T12:39:41.253Z,19.80
2022-12-11T12:42:34.711Z,19.80
2022-12-11T12:45:16.200Z,19.80
2022-12-11T12:47:53.159Z,19.80
2022-12-11T12:50:36.914Z,19.70
2022-12-11T12:53:14.357Z,19.80
2022-12-11T12:55:48.704Z,19.70
2022-12-11T12:58:30.229Z,19.70
2022-12-11T13:01:22.248Z,19.70
2022-12-11T13:04:05.896Z,19.70
2022-12-11T13:06:44.500Z,19.60
2022-12-11T13:09:22.627Z,19.60
2022-12-11T13:11:58.275Z,19.60
2022-12-11T13:14:33.970Z,19.60
2022-12-11T13:17:21.400Z,19.60
2022-12-11T13:20:18.140Z,19.60
2022-12-11T13:23:17.111Z,19.50
2022-12-11T13:25:54.050Z,19.50
2022-12-11T13:28:28.442Z,19.50
2022-12-11T13:31:23.126Z,19.50
2022-12-11T13:33:58.482Z,19.50
2022-12-11T13:36:34.007Z,19.40
2022-12-11T13:39:17.497Z,19.40
2022-12-11T13:41:55.279Z,19.40
2022-12-11T13:44:38.478Z,19.40
2022-12-11T13:47:17.718Z,19.40
2022-12-11T13:49:55.140Z,19.40
2022-12-11T13:52:28.835Z,19.40
2022-12-11T13:55:01.499Z,19.30
2022-12-11T13:57:34.100Z,19.30
2022-12-11T14:00:21.685Z,19.30
2022-12-11T14:02:56.917Z,19.30
2022-12-11T14:05:29.950Z,19.30
2022-12-11T14:08:11.709Z,19.30
2022-12-11T14:10:44.408Z,19.20
2022-12-11T14:13:27.808Z,19.20
2022-12-11T14:16:00.394Z,19.20
2022-12-11T14:18:35.729Z,19.20
2022-12-11T14:21:08.467Z,19.20
2022-12-11T14:23:41.022Z,19.10
2022-12-11T14:26:27.828Z,19.10
2022-12-11T14:29:00.743Z,19.10
2022-12-11T14:31:44.283Z,19.10
2022-12-11T14:34:21.635Z,19.10
2022-12-11T14:36:55.493Z,19.10
2022-12-11T14:39:34.176Z,19.00
2022-12-11T14:42:06.918Z,19.00
2022-12-11T14:45:06.899Z,19.00
2022-12-11T14:47:44.336Z,18.90
2022-12-11T14:50:39.026Z,18.90
2022-12-11T14:53:17.834Z,18.90
2022-12-11T14:55:51.081Z,18.90
2022-12-11T14:58:26.938Z,18.90
2022-12-11T15:01:08.705Z,18.80
2022-12-11T15:03:43.547Z,18.80
2022-12-11T15:06:26.333Z,18.80
2022-12-11T15:09:09.813Z,18.70
2022-12-11T15:11:42.248Z,18.70
2022-12-11T15:14:16.787Z,18.70
2022-12-11T15:16:50.991Z,18.70
2022-12-11T15:19:33.431Z,18.70
2022-12-11T15:22:09.024Z,18.60
2022-12-11T15:24:43.909Z,18.60
2022-12-11T15:27:37.934Z,18.60
2022-12-11T15:30:29.355Z,18.60
2022-12-11T15:33:11.114Z,18.50
2022-12-11T15:36:04.046Z,18.40
2022-12-11T15:38:40.935Z,18.40
2022-12-11T15:41:24.892Z,18.40
2022-12-11T15:43:59.384Z,18.30
2022-12-11T15:46:37.756Z,18.40
2022-12-11T15:49:13.263Z,18.30
2022-12-11T15:51:46.275Z,18.30
2022-12-11T15:54:18.882Z,18.30
2022-12-11T15:56:51.476Z,18.20
2022-12-11T15:59:24.075Z,18.20
2022-12-11T16:01:56.653Z,18.20
2022-12-11T16:04:29.310Z,18.10
2022-12-11T16:07:01.931Z,18.10
2022-12-11T16:09:35.291Z,18.10
2022-12-11T16:12:08.053Z,18.10
2022-12-11T16:14:46.908Z,18.10
2022-12-11T16:17:19.889Z,18.00
2022-12-11T16:19:54.560Z,18.00
2022-12-11T16:22:27.216Z,18.00
2022-12-11T16:24:59.796Z,18.00
2022-12-11T16:27:32.492Z,18.00
2022-12-11T16:30:05.467Z,18.00
2022-12-11T16:32:38.155Z,18.00
2022-12-11T16:35:11.366Z,18.00
2022-12-11T16:37:44.800Z,18.00
2022-12-11T16:40:18.562Z,17.90
2022-12-11T16:42:52.165Z,17.90
2022-12-11T16:45:26.597Z,17.90
2022-12-11T16:47:59.191Z,17.90
2022-12-11T16:50:32.576Z,17.90
2022-12-11T16:53:05.241Z,17.90
2022-12-11T16:55:40.196Z,17.80
2022-12-11T16:58:18.383Z,17.80
2022-12-11T17:00:51.031Z,17.80
2022-12-11T17:03:23.703Z,17.80
2022-12-11T17:05:56.718Z,17.70
2022-12-11T17:08:30.084Z,17.70
2022-12-11T17:11:10.209Z,17.70
2022-12-11T17:13:43.532Z,17.70
2022-12-11T17:16:17.279Z,17.70
2022-12-11T17:18:49.953Z,17.70
2022-12-11T17:21:23.415Z,17.70
2022-12-11T17:23:56.559Z,17.60
2022-12-11T17:26:29.268Z,17.60
2022-12-11T17:29:02.044Z,17.60
2022-12-11T17:31:34.730Z,17.60
2022-12-11T17:34:07.914Z,17.50
2022-12-11T17:36:40.564Z,17.50
2022-12-11T17:39:13.205Z,17.50
2022-12-11T17:41:45.924Z,17.50
2022-12-11T17:44:18.528Z,17.40
2022-12-11T17:46:51.256Z,17.40
2022-12-11T17:49:24.158Z,17.40
2022-12-11T17:51:56.818Z,17.40
2022-12-11T17:54:29.512Z,17.40
2022-12-11T17:57:02.522Z,17.40
2022-12-11T17:59:35.205Z,17.30
2022-12-11T18:02:07.927Z,17.30
2022-12-11T18:04:40.699Z,17.30
2022-12-11T18:07:13.318Z,17.30
2022-12-11T18:09:45.885Z,17.30
2022-12-11T18:12:18.564Z,17.30
2022-12-11T18:14:51.283Z,17.20
2022-12-11T18:17:24.032Z,17.30
2022-12-11T18:20:06.451Z,17.20
2022-12-11T18:22:51.709Z,17.20
2022-12-11T18:25:24.538Z,17.20
2022-12-11T18:28:06.195Z,17.10
2022-12-11T18:30:52.679Z,17.10
2022-12-11T18:33:43.648Z,17.10
2022-12-11T18:36:28.931Z,17.10
2022-12-11T18:39:06.461Z,17.00
2022-12-11T18:42:16.553Z,17.00
2022-12-11T18:44:57.545Z,17.00
2022-12-11T18:47:38.381Z,17.00
2022-12-11T18:50:11.735Z,16.90
2022-12-11T18:52:44.320Z,16.90
2022-12-11T18:55:16.879Z,16.90
2022-12-11T18:57:50.124Z,16.90
2022-12-11T19:00:23.269Z,16.80
2022-12-11T19:02:55.987Z,16.80
2022-12-11T19:05:29.631Z,16.80
2022-12-11T19:08:02.969Z,16.80
2022-12-11T19:10:45.095Z,16.70
2022-12-11T19:13:17.763Z,16.70
2022-12-11T19:15:50.477Z,16.70
2022-12-11T19:18:23.264Z,16.70
2022-12-11T19:21:04.901Z,16.70
2022-12-11T19:23:40.182Z,16.70
2022-12-11T19:26:15.870Z,16.60
2022-12-11T19:28:50.070Z,16.60
2022-12-11T19:31:24.382Z,16.60
2022-12-11T19:33:58.072Z,16.60
2022-12-11T19:36:32.044Z,16.60
2022-12-11T19:39:09.814Z,16.60
2022-12-11T19:41:45.639Z,16.60
2022-12-11T19:44:18.279Z,16.60
2022-12-11T19:46:50.865Z,16.50
2022-12-11T19:49:24.030Z,16.50
2022-12-11T19:51:56.695Z,16.50
2022-12-11T19:54:29.506Z,16.50
2022-12-11T19:57:02.372Z,16.50
2022-12-11T19:59:35.077Z,16.50
2022-12-11T20:02:07.858Z,16.50
2022-12-11T20:04:40.709Z,16.40
2022-12-11T20:07:13.998Z,16.40
2022-12-11T20:09:46.438Z,16.40
2022-12-11T20:12:18.985Z,16.40
2022-12-11T20:14:51.519Z,16.40
2022-12-11T20:17:24.509Z,16.40
2022-12-11T20:19:57.279Z,16.40
2022-12-11T20:22:29.964Z,16.30
2022-12-11T20:25:02.544Z,16.40
2022-12-11T20:27:35.201Z,16.30
2022-12-11T20:30:08.453Z,16.30
2022-12-11T20:32:40.874Z,16.30
2022-12-11T20:35:14.085Z,16.30
2022-12-11T20:37:46.920Z,16.30
2022-12-11T20:40:19.872Z,16.30
2022-12-11T20:42:52.542Z,16.20
2022-12-11T20:45:25.743Z,16.30
2022-12-11T20:47:58.233Z,16.30
2022-12-11T20:50:30.924Z,16.30
2022-12-11T20:53:03.874Z,16.30
2022-12-11T20:55:41.043Z,16.20
2022-12-11T20:58:13.807Z,16.20
2022-12-11T21:00:46.900Z,16.20
2022-12-11T21:03:19.513Z,16.20
2022-12-11T21:05:52.122Z,16.30
2022-12-11T21:08:24.862Z,16.20
2022-12-11T21:10:57.480Z,16.20
2022-12-11T21:13:30.148Z,16.30
2022-12-11T21:16:07.563Z,16.20
2022-12-11T21:18:40.442Z,16.20
2022-12-11T21:21:13.577Z,16.20
2022-12-11T21:23:46.201Z,16.20
2022-12-11T21:26:19.410Z,16.20
2022-12-11T21:28:52.401Z,16.20
2022-12-11T21:31:25.351Z,16.20
2022-12-11T21:33:58.520Z,16.20
2022-12-11T21:36:31.522Z,16.20
2022-12-11T21:39:05.184Z,16.20
2022-12-11T21:41:37.869Z,16.20
2022-12-11T21:47:12.375Z,16.20
2022-12-11T21:49:48.058Z,16.20
2022-12-11T21:52:20.649Z,16.20
2022-12-11T21:54:53.246Z,16.20
2022-12-11T21:57:26.865Z,16.30
2022-12-11T22:00:00.157Z,16.20
2022-12-11T22:02:37.476Z,16.30
2022-12-11T22:05:13.274Z,16.30
2022-12-11T22:07:46.091Z,16.30
2022-12-11T22:10:18.810Z,16.30
2022-12-11T22:12:51.494Z,16.30
2022-12-11T22:15:24.333Z,16.30
2022-12-11T22:17:58.040Z,16.30
2022-12-11T22:20:30.617Z,16.30
2022-12-11T22:23:03.228Z,16.30
2022-12-11T22:25:35.953Z,16.40
2022-12-11T22:28:08.593Z,16.30
2022-12-11T22:30:42.131Z,16.40
2022-12-11T22:33:15.052Z,16.40
2022-12-11T22:35:47.801Z,16.40
2022-12-11T22:38:20.421Z,16.40
2022-12-11T22:40:54.804Z,16.40
2022-12-11T22:43:27.487Z,16.40
2022-12-11T22:46:00.191Z,16.40
2022-12-11T22:48:35.902Z,16.50
2022-12-11T22:51:08.761Z,16.40
2022-12-11T22:53:41.464Z,16.40
2022-12-11T22:56:14.632Z,16.40
2022-12-11T22:58:47.252Z,16.40
2022-12-11T23:01:25.156Z,16.50
2022-12-11T23:03:57.849Z,16.40
2022-12-11T23:06:30.534Z,16.50
2022-12-11T23:09:03.700Z,16.40
2022-12-11T23:11:38.042Z,16.40
2022-12-11T23:14:17.205Z,16.40
2022-12-11T23:16:50.007Z,16.40
2022-12-11T23:19:25.636Z,16.40
2022-12-11T23:21:58.439Z,16.40
2022-12-11T23:24:31.118Z,16.40
2022-12-11T23:27:03.800Z,16.40
2022-12-11T23:29:36.659Z,16.40
2022-12-11T23:32:09.360Z,16.40
2022-12-11T23:34:41.913Z,16.40
2022-12-11T23:37:14.517Z,16.40
2022-12-11T23:39:47.171Z,16.30
2022-12-11T23:42:19.775Z,16.30
2022-12-11T23:44:52.277Z,16.30
2022-12-11T23:47:24.928Z,16.30
2022-12-11T23:49:57.528Z,16.30
2022-12-11T23:52:30.127Z,16.30
2022-12-11T23:55:02.926Z,16.30
2022-12-11T23:57:35.984Z,16.30
